sensor_id;sensor_type;location;lat;lon;timestamp;P1;durP1;ratioP1;P2;durP2;ratioP2
4309;SDS011;2168;53.576;9.980;2023-04-03T00:01:25;0.10;;;0.10;;
4309;SDS011;2168;53.576;9.980;2023-04-03T00:03:50;0.10;;;0.10;;
4309;SDS011;2168;53.576;9.980;2023-04-03T00:06:16;0.10;;;0.10;;
4309;SDS011;2168;53.576;9.980;2023-04-03T00:08:42;0.10;;;0.10;;
4309;SDS011;2168;53.576;9.980;2023-04-03T00:11:07;0.10;;;0.10;;
4309;SDS011;2168;53.576;9.980;2023-04-03T00:13:32;0.10;;;0.10;;
4309;SDS011;2168;53.576;9.980;2023-04-03T00:15:58;0.10;;;0.10;;
4309;SDS011;2168;53.576;9.980;2023-04-03T00:18:23;0.10;;;0.10;;
4309;SDS011;2168;53.576;9.980;2023-04-03T00:20:48;0.10;;;0.10;;
4309;SDS011;2168;53.576;9.980;2023-04-03T00:23:14;0.10;;;0.10;;
4309;SDS011;2168;53.576;9.980;2023-04-03T00:25:39;0.10;;;0.10;;
4309;SDS011;2168;53.576;9.980;2023-04-03T00:28:05;0.10;;;0.10;;
4309;SDS011;2168;53.576;9.980;2023-04-03T00:30:30;0.10;;;0.10;;
4309;SDS011;2168;53.576;9.980;2023-04-03T00:32:56;0.10;;;0.10;;
4309;SDS011;2168;53.576;9.980;2023-04-03T00:35:21;0.10;;;0.10;;
4309;SDS011;2168;53.576;9.980;2023-04-03T00:37:47;0.10;;;0.10;;
4309;SDS011;2168;53.576;9.980;2023-04-03T00:40:13;0.10;;;0.10;;
4309;SDS011;2168;53.576;9.980;2023-04-03T00:42:39;0.10;;;0.10;;
4309;SDS011;2168;53.576;9.980;2023-04-03T00:47:30;0.00;;;0.00;;
4309;SDS011;2168;53.576;9.980;2023-04-03T00:49:56;0.10;;;0.10;;
4309;SDS011;2168;53.576;9.980;2023-04-03T00:52:23;0.10;;;0.10;;
4309;SDS011;2168;53.576;9.980;2023-04-03T00:54:50;0.10;;;0.10;;
4309;SDS011;2168;53.576;9.980;2023-04-03T00:57:17;0.10;;;0.10;;
4309;SDS011;2168;53.576;9.980;2023-04-03T00:59:44;0.10;;;0.10;;
4309;SDS011;2168;53.576;9.980;2023-04-03T01:02:10;0.10;;;0.10;;
4309;SDS011;2168;53.576;9.980;2023-04-03T01:04:36;0.10;;;0.10;;
4309;SDS011;2168;53.576;9.980;2023-04-03T01:07:03;0.10;;;0.10;;
4309;SDS011;2168;53.576;9.980;2023-04-03T01:09:29;0.10;;;0.10;;
4309;SDS011;2168;53.576;9.980;2023-04-03T01:12:12;0.10;;;0.10;;
4309;SDS011;2168;53.576;9.980;2023-04-03T01:14:38;0.10;;;0.10;;
4309;SDS011;2168;53.576;9.980;2023-04-03T01:17:03;0.10;;;0.10;;
4309;SDS011;2168;53.576;9.980;2023-04-03T01:19:28;0.10;;;0.10;;
4309;SDS011;2168;53.576;9.980;2023-04-03T01:22:05;0.10;;;0.10;;
4309;SDS011;2168;53.576;9.980;2023-04-03T01:24:39;0.10;;;0.10;;
4309;SDS011;2168;53.576;9.980;2023-04-03T01:27:05;0.10;;;0.10;;
4309;SDS011;2168;53.576;9.980;2023-04-03T01:29:31;0.10;;;0.10;;
4309;SDS011;2168;53.576;9.980;2023-04-03T01:31:57;0.10;;;0.10;;
4309;SDS011;2168;53.576;9.980;2023-04-03T01:34:23;0.10;;;0.10;;
4309;SDS011;2168;53.576;9.980;2023-04-03T01:36:48;0.10;;;0.10;;
4309;SDS011;2168;53.576;9.980;2023-04-03T01:39:14;0.10;;;0.10;;
4309;SDS011;2168;53.576;9.980;2023-04-03T01:41:39;0.10;;;0.10;;
4309;SDS011;2168;53.576;9.980;2023-04-03T01:44:04;0.10;;;0.10;;
4309;SDS011;2168;53.576;9.980;2023-04-03T01:46:30;0.10;;;0.10;;
4309;SDS011;2168;53.576;9.980;2023-04-03T01:48:55;0.10;;;0.10;;
4309;SDS011;2168;53.576;9.980;2023-04-03T01:51:20;0.10;;;0.10;;
4309;SDS011;2168;53.576;9.980;2023-04-03T01:53:46;0.10;;;0.10;;
4309;SDS011;2168;53.576;9.980;2023-04-03T01:56:11;0.10;;;0.10;;
4309;SDS011;2168;53.576;9.980;2023-04-03T01:58:36;0.23;;;0.23;;
4309;SDS011;2168;53.576;9.980;2023-04-03T02:01:01;4.80;;;1.93;;
4309;SDS011;2168;53.576;9.980;2023-04-03T02:03:27;1.57;;;1.40;;
4309;SDS011;2168;53.576;9.980;2023-04-03T02:05:52;1.80;;;1.50;;
4309;SDS011;2168;53.576;9.980;2023-04-03T02:08:18;5.33;;;2.30;;
4309;SDS011;2168;53.576;9.980;2023-04-03T02:10:43;6.33;;;2.20;;
4309;SDS011;2168;53.576;9.980;2023-04-03T02:13:09;7.17;;;2.33;;
4309;SDS011;2168;53.576;9.980;2023-04-03T02:15:37;4.20;;;2.00;;
4309;SDS011;2168;53.576;9.980;2023-04-03T02:18:02;2.80;;;1.57;;
4309;SDS011;2168;53.576;9.980;2023-04-03T02:20:27;3.53;;;2.00;;
4309;SDS011;2168;53.576;9.980;2023-04-03T02:22:52;4.87;;;2.10;;
4309;SDS011;2168;53.576;9.980;2023-04-03T02:25:18;6.10;;;1.90;;
4309;SDS011;2168;53.576;9.980;2023-04-03T02:27:43;4.63;;;2.27;;
4309;SDS011;2168;53.576;9.980;2023-04-03T02:30:08;4.17;;;1.97;;
4309;SDS011;2168;53.576;9.980;2023-04-03T02:32:35;4.73;;;2.03;;
4309;SDS011;2168;53.576;9.980;2023-04-03T02:35:00;3.17;;;2.20;;
4309;SDS011;2168;53.576;9.980;2023-04-03T02:37:26;5.40;;;2.30;;
4309;SDS011;2168;53.576;9.980;2023-04-03T02:39:51;5.43;;;2.30;;
4309;SDS011;2168;53.576;9.980;2023-04-03T02:42:16;3.47;;;2.13;;
4309;SDS011;2168;53.576;9.980;2023-04-03T02:44:41;8.43;;;2.80;;
4309;SDS011;2168;53.576;9.980;2023-04-03T02:47:06;3.60;;;2.10;;
4309;SDS011;2168;53.576;9.980;2023-04-03T02:49:32;5.20;;;2.23;;
4309;SDS011;2168;53.576;9.980;2023-04-03T02:51:57;8.00;;;2.50;;
4309;SDS011;2168;53.576;9.980;2023-04-03T02:54:22;5.67;;;1.93;;
4309;SDS011;2168;53.576;9.980;2023-04-03T02:56:48;5.03;;;2.00;;
4309;SDS011;2168;53.576;9.980;2023-04-03T02:59:13;5.57;;;1.67;;
4309;SDS011;2168;53.576;9.980;2023-04-03T03:01:39;8.27;;;2.23;;
4309;SDS011;2168;53.576;9.980;2023-04-03T03:04:04;6.13;;;1.67;;
4309;SDS011;2168;53.576;9.980;2023-04-03T03:06:29;3.63;;;1.90;;
4309;SDS011;2168;53.576;9.980;2023-04-03T03:08:55;5.53;;;1.67;;
4309;SDS011;2168;53.576;9.980;2023-04-03T03:11:20;9.10;;;2.00;;
4309;SDS011;2168;53.576;9.980;2023-04-03T03:13:45;9.13;;;2.40;;
4309;SDS011;2168;53.576;9.980;2023-04-03T03:16:11;3.80;;;1.90;;
4309;SDS011;2168;53.576;9.980;2023-04-03T03:18:36;4.80;;;2.20;;
4309;SDS011;2168;53.576;9.980;2023-04-03T03:21:02;2.93;;;1.77;;
4309;SDS011;2168;53.576;9.980;2023-04-03T03:23:28;3.40;;;1.90;;
4309;SDS011;2168;53.576;9.980;2023-04-03T03:25:54;4.50;;;2.07;;
4309;SDS011;2168;53.576;9.980;2023-04-03T03:28:20;7.87;;;2.10;;
4309;SDS011;2168;53.576;9.980;2023-04-03T03:30:45;2.30;;;1.80;;
4309;SDS011;2168;53.576;9.980;2023-04-03T03:33:10;4.30;;;1.93;;
4309;SDS011;2168;53.576;9.980;2023-04-03T03:35:35;6.50;;;2.67;;
4309;SDS011;2168;53.576;9.980;2023-04-03T03:38:01;7.40;;;2.30;;
4309;SDS011;2168;53.576;9.980;2023-04-03T03:40:26;9.00;;;2.43;;
4309;SDS011;2168;53.576;9.980;2023-04-03T03:42:51;6.00;;;1.93;;
4309;SDS011;2168;53.576;9.980;2023-04-03T03:45:16;4.00;;;1.57;;
4309;SDS011;2168;53.576;9.980;2023-04-03T03:47:41;6.27;;;1.93;;
4309;SDS011;2168;53.576;9.980;2023-04-03T03:50:06;2.70;;;2.03;;
4309;SDS011;2168;53.576;9.980;2023-04-03T03:52:32;5.03;;;1.87;;
4309;SDS011;2168;53.576;9.980;2023-04-03T03:54:57;4.47;;;2.37;;
4309;SDS011;2168;53.576;9.980;2023-04-03T03:57:22;3.97;;;1.77;;
4309;SDS011;2168;53.576;9.980;2023-04-03T03:59:47;2.60;;;1.87;;
4309;SDS011;2168;53.576;9.980;2023-04-03T04:02:13;3.33;;;1.90;;
4309;SDS011;2168;53.576;9.980;2023-04-03T04:04:39;3.10;;;1.80;;
4309;SDS011;2168;53.576;9.980;2023-04-03T04:07:04;4.27;;;1.90;;
4309;SDS011;2168;53.576;9.980;2023-04-03T04:09:29;3.60;;;1.67;;
4309;SDS011;2168;53.576;9.980;2023-04-03T04:11:54;6.10;;;2.00;;
4309;SDS011;2168;53.576;9.980;2023-04-03T04:14:19;3.20;;;2.10;;
4309;SDS011;2168;53.576;9.980;2023-04-03T04:16:47;2.20;;;2.10;;
4309;SDS011;2168;53.576;9.980;2023-04-03T04:19:13;6.00;;;1.80;;
4309;SDS011;2168;53.576;9.980;2023-04-03T04:21:38;2.00;;;1.50;;
4309;SDS011;2168;53.576;9.980;2023-04-03T04:24:04;3.00;;;1.70;;
4309;SDS011;2168;53.576;9.980;2023-04-03T04:26:29;26.23;;;3.40;;
4309;SDS011;2168;53.576;9.980;2023-04-03T04:28:55;8.53;;;2.03;;
4309;SDS011;2168;53.576;9.980;2023-04-03T04:31:20;4.10;;;2.47;;
4309;SDS011;2168;53.576;9.980;2023-04-03T04:33:45;5.93;;;2.00;;
4309;SDS011;2168;53.576;9.980;2023-04-03T04:36:10;4.43;;;2.40;;
4309;SDS011;2168;53.576;9.980;2023-04-03T04:38:35;3.03;;;2.23;;
4309;SDS011;2168;53.576;9.980;2023-04-03T04:41:00;7.50;;;2.60;;
4309;SDS011;2168;53.576;9.980;2023-04-03T04:43:26;6.80;;;2.80;;
4309;SDS011;2168;53.576;9.980;2023-04-03T04:46:01;7.60;;;2.60;;
4309;SDS011;2168;53.576;9.980;2023-04-03T04:48:26;3.13;;;2.37;;
4309;SDS011;2168;53.576;9.980;2023-04-03T04:50:51;4.87;;;2.33;;
4309;SDS011;2168;53.576;9.980;2023-04-03T04:53:16;5.57;;;2.10;;
4309;SDS011;2168;53.576;9.980;2023-04-03T04:55:42;5.40;;;2.43;;
4309;SDS011;2168;53.576;9.980;2023-04-03T04:58:07;2.93;;;2.73;;
4309;SDS011;2168;53.576;9.980;2023-04-03T05:00:32;5.77;;;2.70;;
4309;SDS011;2168;53.576;9.980;2023-04-03T05:02:58;4.20;;;2.63;;
4309;SDS011;2168;53.576;9.980;2023-04-03T05:05:23;6.87;;;2.23;;
4309;SDS011;2168;53.576;9.980;2023-04-03T05:07:48;3.20;;;2.43;;
4309;SDS011;2168;53.576;9.980;2023-04-03T05:10:13;7.83;;;2.67;;
4309;SDS011;2168;53.576;9.980;2023-04-03T05:12:38;3.50;;;2.27;;
4309;SDS011;2168;53.576;9.980;2023-04-03T05:15:04;5.50;;;2.60;;
4309;SDS011;2168;53.576;9.980;2023-04-03T05:17:29;11.03;;;3.00;;
4309;SDS011;2168;53.576;9.980;2023-04-03T05:19:54;6.67;;;2.83;;
4309;SDS011;2168;53.576;9.980;2023-04-03T05:22:20;7.70;;;2.97;;
4309;SDS011;2168;53.576;9.980;2023-04-03T05:24:45;6.00;;;3.00;;
4309;SDS011;2168;53.576;9.980;2023-04-03T05:27:10;4.67;;;2.50;;
4309;SDS011;2168;53.576;9.980;2023-04-03T05:29:35;4.97;;;3.53;;
4309;SDS011;2168;53.576;9.980;2023-04-03T05:32:01;10.60;;;2.50;;
4309;SDS011;2168;53.576;9.980;2023-04-03T05:34:26;5.87;;;2.23;;
4309;SDS011;2168;53.576;9.980;2023-04-03T05:36:51;7.73;;;2.60;;
4309;SDS011;2168;53.576;9.980;2023-04-03T05:39:16;6.70;;;2.27;;
4309;SDS011;2168;53.576;9.980;2023-04-03T05:41:42;4.73;;;2.50;;
4309;SDS011;2168;53.576;9.980;2023-04-03T05:44:07;6.87;;;2.27;;
4309;SDS011;2168;53.576;9.980;2023-04-03T05:46:32;6.10;;;2.23;;
4309;SDS011;2168;53.576;9.980;2023-04-03T05:48:58;4.20;;;2.20;;
4309;SDS011;2168;53.576;9.980;2023-04-03T05:51:24;2.20;;;1.90;;
4309;SDS011;2168;53.576;9.980;2023-04-03T05:53:52;3.50;;;2.13;;
4309;SDS011;2168;53.576;9.980;2023-04-03T05:56:19;3.07;;;2.10;;
4309;SDS011;2168;53.576;9.980;2023-04-03T05:58:45;5.23;;;2.30;;
4309;SDS011;2168;53.576;9.980;2023-04-03T06:01:11;7.10;;;2.20;;
4309;SDS011;2168;53.576;9.980;2023-04-03T06:03:36;4.33;;;1.77;;
4309;SDS011;2168;53.576;9.980;2023-04-03T06:06:02;2.03;;;1.83;;
4309;SDS011;2168;53.576;9.980;2023-04-03T06:08:28;5.50;;;1.80;;
4309;SDS011;2168;53.576;9.980;2023-04-03T06:10:53;3.57;;;1.57;;
4309;SDS011;2168;53.576;9.980;2023-04-03T06:13:19;6.40;;;2.13;;
4309;SDS011;2168;53.576;9.980;2023-04-03T06:15:44;7.40;;;2.27;;
4309;SDS011;2168;53.576;9.980;2023-04-03T06:18:09;4.90;;;2.13;;
4309;SDS011;2168;53.576;9.980;2023-04-03T06:20:35;7.20;;;2.10;;
4309;SDS011;2168;53.576;9.980;2023-04-03T06:23:00;4.83;;;2.47;;
4309;SDS011;2168;53.576;9.980;2023-04-03T06:25:25;7.40;;;2.17;;
4309;SDS011;2168;53.576;9.980;2023-04-03T06:27:51;5.70;;;2.10;;
4309;SDS011;2168;53.576;9.980;2023-04-03T06:30:16;4.40;;;2.00;;
4309;SDS011;2168;53.576;9.980;2023-04-03T06:32:41;6.37;;;2.63;;
4309;SDS011;2168;53.576;9.980;2023-04-03T06:35:08;3.37;;;2.00;;
4309;SDS011;2168;53.576;9.980;2023-04-03T06:37:33;2.67;;;2.30;;
4309;SDS011;2168;53.576;9.980;2023-04-03T06:39:58;5.50;;;2.10;;
4309;SDS011;2168;53.576;9.980;2023-04-03T06:42:25;4.33;;;2.17;;
4309;SDS011;2168;53.576;9.980;2023-04-03T06:44:50;6.30;;;2.97;;
4309;SDS011;2168;53.576;9.980;2023-04-03T06:47:16;6.63;;;3.27;;
4309;SDS011;2168;53.576;9.980;2023-04-03T06:49:41;8.63;;;2.80;;
4309;SDS011;2168;53.576;9.980;2023-04-03T06:52:08;3.43;;;2.40;;
4309;SDS011;2168;53.576;9.980;2023-04-03T06:54:33;3.93;;;2.20;;
4309;SDS011;2168;53.576;9.980;2023-04-03T06:56:58;7.73;;;2.77;;
4309;SDS011;2168;53.576;9.980;2023-04-03T06:59:24;3.27;;;1.80;;
4309;SDS011;2168;53.576;9.980;2023-04-03T07:01:49;9.10;;;1.80;;
4309;SDS011;2168;53.576;9.980;2023-04-03T07:04:14;7.50;;;1.90;;
4309;SDS011;2168;53.576;9.980;2023-04-03T07:06:40;3.63;;;1.70;;
4309;SDS011;2168;53.576;9.980;2023-04-03T07:09:06;3.43;;;1.27;;
4309;SDS011;2168;53.576;9.980;2023-04-03T07:11:32;3.03;;;1.90;;
4309;SDS011;2168;53.576;9.980;2023-04-03T07:13:58;3.40;;;1.47;;
4309;SDS011;2168;53.576;9.980;2023-04-03T07:16:23;2.03;;;1.43;;
4309;SDS011;2168;53.576;9.980;2023-04-03T07:18:48;4.17;;;1.47;;
4309;SDS011;2168;53.576;9.980;2023-04-03T07:21:13;9.80;;;3.40;;
4309;SDS011;2168;53.576;9.980;2023-04-03T07:23:39;4.57;;;1.87;;
4309;SDS011;2168;53.576;9.980;2023-04-03T07:26:04;4.43;;;2.30;;
4309;SDS011;2168;53.576;9.980;2023-04-03T07:28:29;1.53;;;1.30;;
4309;SDS011;2168;53.576;9.980;2023-04-03T07:31:01;1.23;;;1.13;;
4309;SDS011;2168;53.576;9.980;2023-04-03T07:33:27;3.23;;;1.67;;
4309;SDS011;2168;53.576;9.980;2023-04-03T07:35:52;1.43;;;1.10;;
4309;SDS011;2168;53.576;9.980;2023-04-03T07:38:17;3.03;;;1.63;;
4309;SDS011;2168;53.576;9.980;2023-04-03T07:40:47;3.70;;;1.10;;
4309;SDS011;2168;53.576;9.980;2023-04-03T07:43:12;3.50;;;1.13;;
4309;SDS011;2168;53.576;9.980;2023-04-03T07:45:37;2.40;;;1.33;;
4309;SDS011;2168;53.576;9.980;2023-04-03T07:48:03;3.03;;;1.00;;
4309;SDS011;2168;53.576;9.980;2023-04-03T07:50:28;4.80;;;1.43;;
4309;SDS011;2168;53.576;9.980;2023-04-03T07:52:55;3.80;;;1.53;;
4309;SDS011;2168;53.576;9.980;2023-04-03T07:55:22;3.97;;;1.43;;
4309;SDS011;2168;53.576;9.980;2023-04-03T07:57:47;7.30;;;1.80;;
4309;SDS011;2168;53.576;9.980;2023-04-03T08:00:13;4.07;;;1.40;;
4309;SDS011;2168;53.576;9.980;2023-04-03T08:02:38;1.70;;;1.20;;
4309;SDS011;2168;53.576;9.980;2023-04-03T08:05:03;4.00;;;1.13;;
4309;SDS011;2168;53.576;9.980;2023-04-03T08:07:28;1.40;;;0.83;;
4309;SDS011;2168;53.576;9.980;2023-04-03T08:09:54;0.10;;;0.10;;
4309;SDS011;2168;53.576;9.980;2023-04-03T08:12:19;0.10;;;0.10;;
4309;SDS011;2168;53.576;9.980;2023-04-03T08:14:44;0.20;;;0.20;;
4309;SDS011;2168;53.576;9.980;2023-04-03T08:17:10;0.20;;;0.20;;
4309;SDS011;2168;53.576;9.980;2023-04-03T08:19:37;0.20;;;0.20;;
4309;SDS011;2168;53.576;9.980;2023-04-03T08:22:02;0.20;;;0.20;;
4309;SDS011;2168;53.576;9.980;2023-04-03T08:24:29;0.20;;;0.20;;
4309;SDS011;2168;53.576;9.980;2023-04-03T08:26:54;0.20;;;0.20;;
4309;SDS011;2168;53.576;9.980;2023-04-03T08:29:20;0.20;;;0.20;;
4309;SDS011;2168;53.576;9.980;2023-04-03T08:31:46;0.30;;;0.30;;
4309;SDS011;2168;53.576;9.980;2023-04-03T08:34:11;0.20;;;0.20;;
4309;SDS011;2168;53.576;9.980;2023-04-03T08:36:38;0.40;;;0.40;;
4309;SDS011;2168;53.576;9.980;2023-04-03T08:39:03;0.30;;;0.30;;
4309;SDS011;2168;53.576;9.980;2023-04-03T08:41:29;0.20;;;0.20;;
4309;SDS011;2168;53.576;9.980;2023-04-03T08:44:02;0.30;;;0.30;;
4309;SDS011;2168;53.576;9.980;2023-04-03T08:46:35;0.40;;;0.40;;
4309;SDS011;2168;53.576;9.980;2023-04-03T08:49:02;0.33;;;0.33;;
4309;SDS011;2168;53.576;9.980;2023-04-03T08:51:29;0.30;;;0.30;;
4309;SDS011;2168;53.576;9.980;2023-04-03T08:54:02;0.37;;;0.37;;
4309;SDS011;2168;53.576;9.980;2023-04-03T08:56:30;0.33;;;0.33;;
4309;SDS011;2168;53.576;9.980;2023-04-03T08:58:56;0.40;;;0.40;;
4309;SDS011;2168;53.576;9.980;2023-04-03T09:01:39;0.40;;;0.40;;
4309;SDS011;2168;53.576;9.980;2023-04-03T09:04:12;0.30;;;0.30;;
4309;SDS011;2168;53.576;9.980;2023-04-03T09:06:38;0.50;;;0.50;;
4309;SDS011;2168;53.576;9.980;2023-04-03T09:16:49;6.70;;;2.03;;
4309;SDS011;2168;53.576;9.980;2023-04-03T09:21:58;1.90;;;1.13;;
4309;SDS011;2168;53.576;9.980;2023-04-03T09:24:24;1.23;;;1.10;;
4309;SDS011;2168;53.576;9.980;2023-04-03T09:26:51;2.70;;;2.00;;
4309;SDS011;2168;53.576;9.980;2023-04-03T09:29:19;3.30;;;2.00;;
4309;SDS011;2168;53.576;9.980;2023-04-03T09:31:44;6.53;;;2.80;;
4309;SDS011;2168;53.576;9.980;2023-04-03T09:39:21;6.33;;;1.73;;
4309;SDS011;2168;53.576;9.980;2023-04-03T09:44:22;0.60;;;0.60;;
4309;SDS011;2168;53.576;9.980;2023-04-03T09:46:47;2.17;;;1.37;;
4309;SDS011;2168;53.576;9.980;2023-04-03T09:49:12;1.97;;;1.47;;
4309;SDS011;2168;53.576;9.980;2023-04-03T09:51:38;4.47;;;2.13;;
4309;SDS011;2168;53.576;9.980;2023-04-03T09:56:50;5.10;;;2.20;;
4309;SDS011;2168;53.576;9.980;2023-04-03T09:59:16;6.70;;;2.23;;
4309;SDS011;2168;53.576;9.980;2023-04-03T10:01:42;1.80;;;1.70;;
4309;SDS011;2168;53.576;9.980;2023-04-03T10:04:12;2.83;;;2.10;;
4309;SDS011;2168;53.576;9.980;2023-04-03T10:06:48;2.40;;;1.70;;
4309;SDS011;2168;53.576;9.980;2023-04-03T10:09:18;1.90;;;1.77;;
4309;SDS011;2168;53.576;9.980;2023-04-03T10:12:17;1.90;;;1.80;;
4309;SDS011;2168;53.576;9.980;2023-04-03T10:17:03;4.63;;;2.33;;
4309;SDS011;2168;53.576;9.980;2023-04-03T10:19:36;4.20;;;2.23;;
4309;SDS011;2168;53.576;9.980;2023-04-03T10:22:18;2.73;;;2.53;;
4309;SDS011;2168;53.576;9.980;2023-04-03T10:25:04;2.90;;;2.70;;
4309;SDS011;2168;53.576;9.980;2023-04-03T10:30:09;1.93;;;1.83;;
4309;SDS011;2168;53.576;9.980;2023-04-03T10:40:40;0.93;;;0.93;;
4309;SDS011;2168;53.576;9.980;2023-04-03T10:45:49;1.00;;;1.00;;
4309;SDS011;2168;53.576;9.980;2023-04-03T10:55:59;0.93;;;0.93;;
4309;SDS011;2168;53.576;9.980;2023-04-03T11:00:52;0.90;;;0.90;;
4309;SDS011;2168;53.576;9.980;2023-04-03T11:03:24;1.00;;;1.00;;
4309;SDS011;2168;53.576;9.980;2023-04-03T11:05:52;1.00;;;1.00;;
4309;SDS011;2168;53.576;9.980;2023-04-03T11:10:53;0.90;;;0.90;;
4309;SDS011;2168;53.576;9.980;2023-04-03T11:13:21;1.00;;;1.00;;
4309;SDS011;2168;53.576;9.980;2023-04-03T11:15:48;0.90;;;0.90;;
4309;SDS011;2168;53.576;9.980;2023-04-03T11:18:15;0.93;;;0.93;;
4309;SDS011;2168;53.576;9.980;2023-04-03T11:20:43;0.80;;;0.80;;
4309;SDS011;2168;53.576;9.980;2023-04-03T11:23:15;1.00;;;1.00;;
4309;SDS011;2168;53.576;9.980;2023-04-03T11:25:44;1.00;;;1.00;;
4309;SDS011;2168;53.576;9.980;2023-04-03T11:28:13;1.00;;;1.00;;
4309;SDS011;2168;53.576;9.980;2023-04-03T11:33:32;1.00;;;1.00;;
4309;SDS011;2168;53.576;9.980;2023-04-03T11:36:06;0.90;;;0.90;;
4309;SDS011;2168;53.576;9.980;2023-04-03T11:38:35;0.90;;;0.90;;
4309;SDS011;2168;53.576;9.980;2023-04-03T11:41:02;1.00;;;1.00;;
4309;SDS011;2168;53.576;9.980;2023-04-03T11:43:28;1.00;;;1.00;;
4309;SDS011;2168;53.576;9.980;2023-04-03T11:45:55;1.30;;;1.30;;
4309;SDS011;2168;53.576;9.980;2023-04-03T11:50:52;1.50;;;1.50;;
4309;SDS011;2168;53.576;9.980;2023-04-03T11:55:53;1.10;;;1.10;;
4309;SDS011;2168;53.576;9.980;2023-04-03T11:58:20;1.20;;;1.20;;
4309;SDS011;2168;53.576;9.980;2023-04-03T12:03:31;1.10;;;1.10;;
4309;SDS011;2168;53.576;9.980;2023-04-03T12:13:34;1.40;;;1.40;;
4309;SDS011;2168;53.576;9.980;2023-04-03T12:15:59;1.37;;;1.37;;
4309;SDS011;2168;53.576;9.980;2023-04-03T12:21:06;1.70;;;1.70;;
4309;SDS011;2168;53.576;9.980;2023-04-03T12:23:32;1.57;;;1.57;;
4309;SDS011;2168;53.576;9.980;2023-04-03T12:28:29;1.80;;;1.80;;
4309;SDS011;2168;53.576;9.980;2023-04-03T12:30:56;1.40;;;1.40;;
4309;SDS011;2168;53.576;9.980;2023-04-03T12:48:39;1.90;;;1.90;;
4309;SDS011;2168;53.576;9.980;2023-04-03T12:51:15;1.80;;;1.80;;
4309;SDS011;2168;53.576;9.980;2023-04-03T12:53:42;1.70;;;1.70;;
4309;SDS011;2168;53.576;9.980;2023-04-03T12:56:27;1.53;;;1.53;;
4309;SDS011;2168;53.576;9.980;2023-04-03T12:58:53;1.57;;;1.57;;
4309;SDS011;2168;53.576;9.980;2023-04-03T13:01:25;1.80;;;1.80;;
4309;SDS011;2168;53.576;9.980;2023-04-03T13:03:54;1.60;;;1.60;;
4309;SDS011;2168;53.576;9.980;2023-04-03T13:06:24;1.40;;;1.40;;
4309;SDS011;2168;53.576;9.980;2023-04-03T13:08:51;1.60;;;1.60;;
4309;SDS011;2168;53.576;9.980;2023-04-03T13:11:17;1.80;;;1.80;;
4309;SDS011;2168;53.576;9.980;2023-04-03T13:13:55;1.70;;;1.70;;
4309;SDS011;2168;53.576;9.980;2023-04-03T13:16:21;1.90;;;1.90;;
4309;SDS011;2168;53.576;9.980;2023-04-03T13:18:50;1.70;;;1.70;;
4309;SDS011;2168;53.576;9.980;2023-04-03T13:21:17;1.87;;;1.87;;
4309;SDS011;2168;53.576;9.980;2023-04-03T13:23:44;1.60;;;1.60;;
4309;SDS011;2168;53.576;9.980;2023-04-03T13:26:11;1.80;;;1.80;;
4309;SDS011;2168;53.576;9.980;2023-04-03T13:28:36;1.50;;;1.50;;
4309;SDS011;2168;53.576;9.980;2023-04-03T13:31:07;1.50;;;1.50;;
4309;SDS011;2168;53.576;9.980;2023-04-03T13:33:35;1.60;;;1.60;;
4309;SDS011;2168;53.576;9.980;2023-04-03T13:36:16;1.87;;;1.87;;
4309;SDS011;2168;53.576;9.980;2023-04-03T13:38:42;1.40;;;1.40;;
4309;SDS011;2168;53.576;9.980;2023-04-03T13:43:51;1.90;;;1.90;;
4309;SDS011;2168;53.576;9.980;2023-04-03T13:48:43;1.80;;;1.80;;
4309;SDS011;2168;53.576;9.980;2023-04-03T13:53:41;1.70;;;1.70;;
4309;SDS011;2168;53.576;9.980;2023-04-03T13:56:08;1.50;;;1.50;;
4309;SDS011;2168;53.576;9.980;2023-04-03T13:58:34;1.60;;;1.60;;
4309;SDS011;2168;53.576;9.980;2023-04-03T14:03:45;2.00;;;2.00;;
4309;SDS011;2168;53.576;9.980;2023-04-03T14:06:12;1.90;;;1.90;;
4309;SDS011;2168;53.576;9.980;2023-04-03T14:08:37;2.03;;;2.03;;
4309;SDS011;2168;53.576;9.980;2023-04-03T14:11:02;1.80;;;1.80;;
4309;SDS011;2168;53.576;9.980;2023-04-03T14:13:31;1.90;;;1.90;;
4309;SDS011;2168;53.576;9.980;2023-04-03T14:15:56;2.00;;;2.00;;
4309;SDS011;2168;53.576;9.980;2023-04-03T14:18:21;1.87;;;1.87;;
4309;SDS011;2168;53.576;9.980;2023-04-03T14:20:47;1.90;;;1.90;;
4309;SDS011;2168;53.576;9.980;2023-04-03T14:23:13;2.00;;;2.00;;
4309;SDS011;2168;53.576;9.980;2023-04-03T14:25:38;1.93;;;1.93;;
4309;SDS011;2168;53.576;9.980;2023-04-03T14:28:12;2.00;;;2.00;;
4309;SDS011;2168;53.576;9.980;2023-04-03T14:30:38;2.20;;;2.20;;
4309;SDS011;2168;53.576;9.980;2023-04-03T14:33:03;2.00;;;2.00;;
4309;SDS011;2168;53.576;9.980;2023-04-03T14:35:29;2.20;;;2.20;;
4309;SDS011;2168;53.576;9.980;2023-04-03T14:37:54;1.83;;;1.83;;
4309;SDS011;2168;53.576;9.980;2023-04-03T14:40:22;2.40;;;2.40;;
4309;SDS011;2168;53.576;9.980;2023-04-03T14:42:47;2.10;;;2.10;;
4309;SDS011;2168;53.576;9.980;2023-04-03T14:45:14;2.30;;;2.30;;
4309;SDS011;2168;53.576;9.980;2023-04-03T14:48:02;2.03;;;2.03;;
4309;SDS011;2168;53.576;9.980;2023-04-03T14:50:26;2.20;;;2.20;;
4309;SDS011;2168;53.576;9.980;2023-04-03T14:52:53;2.00;;;2.00;;
4309;SDS011;2168;53.576;9.980;2023-04-03T14:55:19;2.10;;;2.10;;
4309;SDS011;2168;53.576;9.980;2023-04-03T14:57:45;1.77;;;1.77;;
4309;SDS011;2168;53.576;9.980;2023-04-03T15:00:14;2.20;;;2.20;;
4309;SDS011;2168;53.576;9.980;2023-04-03T15:02:40;1.97;;;1.97;;
4309;SDS011;2168;53.576;9.980;2023-04-03T15:05:07;2.00;;;2.00;;
4309;SDS011;2168;53.576;9.980;2023-04-03T15:07:33;2.00;;;2.00;;
4309;SDS011;2168;53.576;9.980;2023-04-03T15:10:18;2.10;;;2.10;;
4309;SDS011;2168;53.576;9.980;2023-04-03T15:12:44;1.90;;;1.90;;
4309;SDS011;2168;53.576;9.980;2023-04-03T15:15:10;2.20;;;2.20;;
4309;SDS011;2168;53.576;9.980;2023-04-03T15:17:35;2.00;;;2.00;;
4309;SDS011;2168;53.576;9.980;2023-04-03T15:20:01;2.43;;;2.43;;
4309;SDS011;2168;53.576;9.980;2023-04-03T15:22:26;1.90;;;1.90;;
4309;SDS011;2168;53.576;9.980;2023-04-03T15:24:51;1.70;;;1.70;;
4309;SDS011;2168;53.576;9.980;2023-04-03T15:27:17;2.10;;;2.10;;
4309;SDS011;2168;53.576;9.980;2023-04-03T15:29:43;2.10;;;2.10;;
4309;SDS011;2168;53.576;9.980;2023-04-03T15:32:08;2.00;;;2.00;;
4309;SDS011;2168;53.576;9.980;2023-04-03T15:34:34;2.10;;;2.10;;
4309;SDS011;2168;53.576;9.980;2023-04-03T15:36:59;2.00;;;2.00;;
4309;SDS011;2168;53.576;9.980;2023-04-03T15:39:25;2.27;;;2.27;;
4309;SDS011;2168;53.576;9.980;2023-04-03T15:41:50;1.67;;;1.67;;
4309;SDS011;2168;53.576;9.980;2023-04-03T15:44:16;1.90;;;1.90;;
4309;SDS011;2168;53.576;9.980;2023-04-03T15:46:42;1.67;;;1.67;;
4309;SDS011;2168;53.576;9.980;2023-04-03T15:49:08;1.70;;;1.70;;
4309;SDS011;2168;53.576;9.980;2023-04-03T15:51:33;1.67;;;1.67;;
4309;SDS011;2168;53.576;9.980;2023-04-03T15:53:58;2.10;;;2.10;;
4309;SDS011;2168;53.576;9.980;2023-04-03T15:56:23;2.27;;;2.27;;
4309;SDS011;2168;53.576;9.980;2023-04-03T15:58:48;2.10;;;2.10;;
4309;SDS011;2168;53.576;9.980;2023-04-03T16:01:14;2.20;;;2.20;;
4309;SDS011;2168;53.576;9.980;2023-04-03T16:03:40;2.37;;;2.37;;
4309;SDS011;2168;53.576;9.980;2023-04-03T16:06:09;2.27;;;2.27;;
4309;SDS011;2168;53.576;9.980;2023-04-03T16:08:35;2.00;;;2.00;;
4309;SDS011;2168;53.576;9.980;2023-04-03T16:11:01;1.70;;;1.70;;
4309;SDS011;2168;53.576;9.980;2023-04-03T16:13:27;1.70;;;1.70;;
4309;SDS011;2168;53.576;9.980;2023-04-03T16:15:52;2.20;;;2.20;;
4309;SDS011;2168;53.576;9.980;2023-04-03T16:18:17;1.77;;;1.77;;
4309;SDS011;2168;53.576;9.980;2023-04-03T16:20:43;1.80;;;1.80;;
4309;SDS011;2168;53.576;9.980;2023-04-03T16:23:08;1.80;;;1.80;;
4309;SDS011;2168;53.576;9.980;2023-04-03T16:25:34;1.40;;;1.40;;
4309;SDS011;2168;53.576;9.980;2023-04-03T16:27:59;1.73;;;1.73;;
4309;SDS011;2168;53.576;9.980;2023-04-03T16:30:24;1.80;;;1.80;;
4309;SDS011;2168;53.576;9.980;2023-04-03T16:32:50;1.70;;;1.70;;
4309;SDS011;2168;53.576;9.980;2023-04-03T16:35:15;1.80;;;1.80;;
4309;SDS011;2168;53.576;9.980;2023-04-03T16:37:40;1.70;;;1.70;;
4309;SDS011;2168;53.576;9.980;2023-04-03T16:40:06;1.60;;;1.60;;
4309;SDS011;2168;53.576;9.980;2023-04-03T16:42:32;1.50;;;1.50;;
4309;SDS011;2168;53.576;9.980;2023-04-03T16:44:57;1.80;;;1.80;;
4309;SDS011;2168;53.576;9.980;2023-04-03T16:47:25;1.70;;;1.70;;
4309;SDS011;2168;53.576;9.980;2023-04-03T16:49:50;1.50;;;1.50;;
4309;SDS011;2168;53.576;9.980;2023-04-03T16:52:15;1.77;;;1.77;;